メインページ
METAR-TAF:

METAR-TAF

空港 :

グアム国際空港

ハガニア, グアム, アメリカ合衆国

緯度: 13-29N, 経度: 144-48E, 海抜: 91m

現時点の気象観測

当レポートは1時間2分前の13:54(UTC)に作成
の風 5kt
気温 28°C
湿度 94%
気圧 1012 hPa
視程: 16.1km
晴天

METAR: PGUM 251354Z 09005KT 10SM CLR 28/27 A2988 RMK AO2 SLP110 T02830267 403220272 $

時間: 00:56 (14:56 UTC)

予報

当レポートは3時間36分前の11:20(UTC)に作成
予報は25日の 12時(UTC)から 26日の 18時(UTC)まで有効
の風 10kt
視程: 10km
高度2000ftの雲は散在している
近辺でにわか雨

TAF: PGUM 251120Z 2512/2618 09010KT P6SM VCSH SCT020

4,000以上の空港の気象観測と天気予報(METAR報とTAF報)

利用可能な観測所は地図上に黄色い丸と赤い丸で示す。

丸の上にカーソルを重ねると観測所名を参照できる。

次にクリックすると気象観測と天気予報を参照できる。

マップの切り替え:黒色「×」印の緑ボタンをクリックして拡大、「-」印の緑ボタンをクリックして縮小、緑色の三角印をクリックして隣りの地図に切り替え


METAR-TAF: